Time;durP1;ratioP1;P1;durP2;ratioP2;P2;SDS_P1;SDS_P2;PMS_P1;PMS_P2;Temp;Humidity;BMP_temperature;BMP_pressure;BME280_temperature;BME280_humidity;BME280_pressure;Samples;Min_cycle;Max_cycle;Signal;HPM_P1;HPM_P2
2022/05/21 00:02:22;;;;;;;1.05;0.90;;;;;;;;;;5051750;28;20036;-38
2022/05/21 00:04:47;;;;;;;1.80;1.67;;;;;;;;;;5050571;28;20017;-39
2022/05/21 00:07:13;;;;;;;1.90;1.20;;;;;;;;;;5051971;28;20025;-38
2022/05/21 00:09:38;;;;;;;1.80;0.60;;;;;;;;;;5051848;28;20021;-38
2022/05/21 00:12:04;;;;;;;4.03;0.70;;;;;;;;;;5051606;28;20118;-38
2022/05/21 00:14:30;;;;;;;2.83;0.60;;;;;;;;;;5051394;28;20083;-38
2022/05/21 00:16:55;;;;;;;2.85;0.70;;;;;;;;;;5051863;28;20068;-38
2022/05/21 00:19:21;;;;;;;0.85;0.47;;;;;;;;;;5051541;28;20482;-38
2022/05/21 00:21:46;;;;;;;1.42;1.00;;;;;;;;;;5051614;28;20036;-38
2022/05/21 00:24:12;;;;;;;1.85;0.95;;;;;;;;;;5051606;28;20455;-38
2022/05/21 00:26:37;;;;;;;1.73;1.00;;;;;;;;;;5051831;28;20029;-39
2022/05/21 00:29:02;;;;;;;8.30;1.00;;;;;;;;;;5051813;28;20017;-38
2022/05/21 00:31:28;;;;;;;1.42;0.90;;;;;;;;;;5051575;28;20087;-38
2022/05/21 00:33:53;;;;;;;0.88;0.52;;;;;;;;;;5051328;28;20021;-38
2022/05/21 00:36:18;;;;;;;0.98;0.68;;;;;;;;;;5051506;28;20048;-38
2022/05/21 00:38:44;;;;;;;1.10;0.85;;;;;;;;;;5051527;28;20025;-38
2022/05/21 00:41:11;;;;;;;2.30;0.88;;;;;;;;;;5051329;28;20368;-38
2022/05/21 00:43:39;;;;;;;4.57;0.88;;;;;;;;;;5051351;28;20352;-38
2022/05/21 00:46:06;;;;;;;1.92;1.45;;;;;;;;;;5051231;28;20068;-38
2022/05/21 00:48:31;;;;;;;3.60;0.65;;;;;;;;;;5051591;28;20064;-38
2022/05/21 00:50:57;;;;;;;2.75;0.77;;;;;;;;;;5051068;28;20487;-38
2022/05/21 00:53:23;;;;;;;0.68;0.63;;;;;;;;;;5051157;28;20013;-38
2022/05/21 00:55:50;;;;;;;3.35;1.00;;;;;;;;;;5052623;28;20032;-38
2022/05/21 01:01:01;;;;;;;2.58;0.68;;;;;;;;;;5055764;28;20029;-38
2022/05/21 01:03:30;;;;;;;1.35;0.70;;;;;;;;;;5055175;28;20524;-38
2022/05/21 01:05:57;;;;;;;1.25;0.77;;;;;;;;;;5055389;28;20040;-39
2022/05/21 01:08:23;;;;;;;0.82;0.75;;;;;;;;;;5055180;28;20451;-37
2022/05/21 01:10:51;;;;;;;2.38;0.80;;;;;;;;;;5055132;28;20040;-38
2022/05/21 01:13:18;;;;;;;0.80;0.70;;;;;;;;;;5054643;28;20130;-38
2022/05/21 01:15:45;;;;;;;1.45;0.90;;;;;;;;;;5054924;28;20037;-38
2022/05/21 01:18:11;;;;;;;1.20;0.82;;;;;;;;;;5054823;28;20120;-38
2022/05/21 01:20:38;;;;;;;1.13;0.68;;;;;;;;;;5054906;28;20107;-38
2022/05/21 01:23:03;;;;;;;1.27;0.65;;;;;;;;;;5054862;28;20029;-38
2022/05/21 01:25:29;;;;;;;2.17;1.13;;;;;;;;;;5054663;28;20032;-38
2022/05/21 01:27:55;;;;;;;8.35;1.85;;;;;;;;;;5054782;28;20033;-38
2022/05/21 01:30:22;;;;;;;1.23;0.80;;;;;;;;;;5054926;28;20032;-38
2022/05/21 01:32:48;;;;;;;1.48;0.80;;;;;;;;;;5054950;28;20028;-38
2022/05/21 01:35:14;;;;;;;3.22;1.00;;;;;;;;;;5054526;28;20028;-38
2022/05/21 01:37:41;;;;;;;8.35;1.00;;;;;;;;;;5054520;28;20135;-38
2022/05/21 01:40:07;;;;;;;1.33;0.80;;;;;;;;;;5054857;28;20502;-38
2022/05/21 01:42:33;;;;;;;0.60;0.60;;;;;;;;;;5054587;28;20056;-38
2022/05/21 01:44:59;;;;;;;2.58;1.38;;;;;;;;;;5054751;28;20029;-38
2022/05/21 01:47:24;;;;;;;1.38;0.90;;;;;;;;;;5054662;28;20071;-38
2022/05/21 01:49:51;;;;;;;0.80;0.60;;;;;;;;;;5054372;28;20112;-38
2022/05/21 01:52:17;;;;;;;1.83;0.68;;;;;;;;;;5054309;28;20024;-38
2022/05/21 01:54:42;;;;;;;1.17;0.70;;;;;;;;;;5054215;28;20047;-38
2022/05/21 01:57:09;;;;;;;1.55;1.02;;;;;;;;;;5054385;28;20029;-39
2022/05/21 01:59:34;;;;;;;2.95;0.80;;;;;;;;;;5054578;28;20025;-38
2022/05/21 02:02:01;;;;;;;5.20;2.15;;;;;;;;;;5054135;28;20493;-38
2022/05/21 02:04:26;;;;;;;0.70;0.70;;;;;;;;;;5054010;28;20020;-38
2022/05/21 02:06:52;;;;;;;4.35;0.90;;;;;;;;;;5054028;28;20035;-38
2022/05/21 02:09:17;;;;;;;2.67;0.75;;;;;;;;;;5053897;28;20021;-38
2022/05/21 02:11:43;;;;;;;0.73;0.52;;;;;;;;;;5054083;28;20099;-38
2022/05/21 02:14:09;;;;;;;0.70;0.68;;;;;;;;;;5053649;28;20487;-38
2022/05/21 02:16:35;;;;;;;1.15;0.63;;;;;;;;;;5054039;28;20044;-38
2022/05/21 02:19:02;;;;;;;7.95;0.82;;;;;;;;;;5053865;28;20028;-38
2022/05/21 02:21:28;;;;;;;0.88;0.60;;;;;;;;;;5053980;28;20043;-38
2022/05/21 02:23:53;;;;;;;1.63;1.05;;;;;;;;;;5053948;28;20025;-38
2022/05/21 02:26:19;;;;;;;1.25;0.80;;;;;;;;;;5053521;28;20021;-38
2022/05/21 02:28:44;;;;;;;2.20;0.77;;;;;;;;;;5053687;28;20033;-38
2022/05/21 02:31:09;;;;;;;2.03;0.77;;;;;;;;;;5053560;28;20017;-38
2022/05/21 02:33:35;;;;;;;1.20;0.50;;;;;;;;;;5053547;28;20056;-38
2022/05/21 02:36:00;;;;;;;3.40;0.70;;;;;;;;;;5053549;28;20171;-38
2022/05/21 02:41:11;;;;;;;4.85;0.80;;;;;;;;;;5053713;28;20029;-38
2022/05/21 02:43:36;;;;;;;1.90;1.30;;;;;;;;;;5053335;28;20092;-38
2022/05/21 02:46:02;;;;;;;2.08;0.80;;;;;;;;;;5052085;28;20104;-39
2022/05/21 02:48:29;;;;;;;0.65;0.65;;;;;;;;;;5053220;28;20017;-38
2022/05/21 02:50:55;;;;;;;1.58;0.90;;;;;;;;;;5053201;28;20033;-38
2022/05/21 02:53:20;;;;;;;1.10;0.93;;;;;;;;;;5053132;28;20357;-38
2022/05/21 02:55:46;;;;;;;3.17;0.90;;;;;;;;;;5053073;28;20025;-38
2022/05/21 02:58:12;;;;;;;1.00;0.60;;;;;;;;;;5053070;28;20061;-38
2022/05/21 03:00:38;;;;;;;2.35;0.85;;;;;;;;;;5053160;28;20089;-39
2022/05/21 03:03:03;;;;;;;3.00;0.75;;;;;;;;;;5053004;28;20017;-38
2022/05/21 03:05:29;;;;;;;1.20;0.90;;;;;;;;;;5052871;28;20025;-38
2022/05/21 03:07:55;;;;;;;2.22;1.02;;;;;;;;;;5051704;28;20036;-38
2022/05/21 03:10:22;;;;;;;1.42;0.70;;;;;;;;;;5053085;28;20025;-38
2022/05/21 03:12:48;;;;;;;2.08;1.13;;;;;;;;;;5052604;28;20098;-37
2022/05/21 03:15:14;;;;;;;0.57;0.57;;;;;;;;;;5052684;28;20048;-38
2022/05/21 03:17:39;;;;;;;1.50;0.77;;;;;;;;;;5052462;28;20025;-38
2022/05/21 03:20:06;;;;;;;0.73;0.60;;;;;;;;;;5051455;28;20025;-38
2022/05/21 03:22:32;;;;;;;0.85;0.75;;;;;;;;;;5052811;28;20378;-38
2022/05/21 03:24:57;;;;;;;1.33;0.88;;;;;;;;;;5052843;28;20040;-38
2022/05/21 03:27:24;;;;;;;1.00;0.90;;;;;;;;;;5052415;28;20021;-38
2022/05/21 03:29:49;;;;;;;1.55;0.88;;;;;;;;;;5052747;28;20181;-38
2022/05/21 03:32:15;;;;;;;4.43;1.13;;;;;;;;;;5052388;28;20112;-38
2022/05/21 03:34:41;;;;;;;1.02;0.70;;;;;;;;;;5052294;28;20037;-38
2022/05/21 03:37:07;;;;;;;1.80;1.08;;;;;;;;;;5052614;28;20091;-38
2022/05/21 03:39:32;;;;;;;1.23;0.80;;;;;;;;;;5052201;28;20558;-38
2022/05/21 03:41:57;;;;;;;3.33;1.52;;;;;;;;;;5052523;28;20028;-41
2022/05/21 03:44:25;;;;;;;2.58;1.00;;;;;;;;;;5052418;28;20039;-38
2022/05/21 03:46:52;;;;;;;1.67;1.02;;;;;;;;;;5052153;28;20035;-38
2022/05/21 03:49:18;;;;;;;1.98;0.85;;;;;;;;;;5052026;28;20025;-38
2022/05/21 03:51:44;;;;;;;1.20;0.82;;;;;;;;;;5051125;28;20049;-39
2022/05/21 03:54:10;;;;;;;2.80;0.82;;;;;;;;;;5051990;28;20471;-38
2022/05/21 03:56:35;;;;;;;2.40;0.82;;;;;;;;;;5051924;28;20033;-39
2022/05/21 03:59:01;;;;;;;1.23;0.80;;;;;;;;;;5051925;28;20068;-39
2022/05/21 04:01:26;;;;;;;2.35;1.05;;;;;;;;;;5051869;28;20023;-38
2022/05/21 04:03:54;;;;;;;0.55;0.55;;;;;;;;;;5052064;28;20036;-43
2022/05/21 04:06:20;;;;;;;0.80;0.80;;;;;;;;;;5052048;28;20028;-38
2022/05/21 04:08:46;;;;;;;0.90;0.90;;;;;;;;;;5050565;28;20029;-39
2022/05/21 04:11:12;;;;;;;2.05;1.58;;;;;;;;;;5051869;28;20111;-39
2022/05/21 04:13:37;;;;;;;1.80;0.90;;;;;;;;;;5051717;28;20060;-39
2022/05/21 04:16:03;;;;;;;1.33;1.02;;;;;;;;;;5051630;28;20037;-38
2022/05/21 04:18:28;;;;;;;2.13;1.10;;;;;;;;;;5051563;28;20033;-38
2022/05/21 04:20:54;;;;;;;5.75;0.80;;;;;;;;;;5051624;28;20025;-38
2022/05/21 04:23:20;;;;;;;3.13;1.20;;;;;;;;;;5051481;28;20099;-38
2022/05/21 04:25:47;;;;;;;6.10;1.10;;;;;;;;;;5051562;28;20048;-38
2022/05/21 04:28:12;;;;;;;1.40;0.93;;;;;;;;;;5050481;28;20040;-38
2022/05/21 04:30:39;;;;;;;4.22;1.10;;;;;;;;;;5050589;28;20379;-38
2022/05/21 04:33:04;;;;;;;2.75;1.15;;;;;;;;;;5050195;28;20041;-38
2022/05/21 04:36:17;;;;;;;1.42;0.98;;;;;;;;;;5051206;28;20028;-38
2022/05/21 04:38:16;;;;;;;1.60;0.95;;;;;;;;;;5051229;28;20033;-39
2022/05/21 04:40:42;;;;;;;0.65;0.65;;;;;;;;;;5051301;28;20103;-38
2022/05/21 04:43:07;;;;;;;0.85;0.50;;;;;;;;;;5051522;28;20105;-38
2022/05/21 04:45:33;;;;;;;2.92;0.80;;;;;;;;;;5051225;28;20467;-37
2022/05/21 04:48:01;;;;;;;1.15;0.80;;;;;;;;;;5051260;28;20497;-38
2022/05/21 04:50:28;;;;;;;1.02;0.65;;;;;;;;;;5051271;28;20021;-38
2022/05/21 04:52:53;;;;;;;6.40;0.75;;;;;;;;;;5051191;28;20021;-38
2022/05/21 04:55:19;;;;;;;1.10;0.80;;;;;;;;;;5051216;28;20475;-38
2022/05/21 04:57:45;;;;;;;1.88;1.00;;;;;;;;;;5051113;28;20056;-38
2022/05/21 05:00:12;;;;;;;0.82;0.77;;;;;;;;;;5051033;28;20033;-38
2022/05/21 05:02:38;;;;;;;4.90;1.05;;;;;;;;;;5051491;28;20387;-39
2022/05/21 05:05:05;;;;;;;1.00;0.68;;;;;;;;;;5051072;28;20021;-38
2022/05/21 05:07:31;;;;;;;1.35;0.75;;;;;;;;;;5050981;28;20025;-38
2022/05/21 05:09:56;;;;;;;1.00;0.75;;;;;;;;;;5051130;28;20021;-38
2022/05/21 05:12:22;;;;;;;7.30;1.00;;;;;;;;;;5050547;28;20112;-38
2022/05/21 05:14:48;;;;;;;6.18;1.13;;;;;;;;;;5051043;28;20399;-38
2022/05/21 05:17:14;;;;;;;4.30;1.00;;;;;;;;;;5050750;28;20037;-38
2022/05/21 05:19:41;;;;;;;0.68;0.68;;;;;;;;;;5051018;28;20036;-38
2022/05/21 05:22:09;;;;;;;1.10;1.00;;;;;;;;;;5050850;28;20025;-38
2022/05/21 05:24:38;;;;;;;1.27;0.65;;;;;;;;;;5050774;28;20029;-37
2022/05/21 05:27:04;;;;;;;2.65;0.82;;;;;;;;;;5050885;28;20036;-38
2022/05/21 05:29:30;;;;;;;2.00;1.00;;;;;;;;;;5050659;28;20039;-38
2022/05/21 05:31:56;;;;;;;0.50;0.50;;;;;;;;;;5051007;28;20585;-39
2022/05/21 05:34:21;;;;;;;1.05;0.57;;;;;;;;;;5050753;28;20099;-38
2022/05/21 05:36:47;;;;;;;1.08;0.70;;;;;;;;;;5050609;28;20044;-38
2022/05/21 05:39:14;;;;;;;3.58;0.93;;;;;;;;;;5051044;28;20025;-38
2022/05/21 05:41:42;;;;;;;0.90;0.88;;;;;;;;;;5051946;28;20079;-38
2022/05/21 05:44:08;;;;;;;1.73;1.20;;;;;;;;;;5054505;28;20053;-38
2022/05/21 05:46:36;;;;;;;2.72;1.40;;;;;;;;;;5054410;28;20079;-38
2022/05/21 05:49:06;;;;;;;1.20;1.10;;;;;;;;;;5054476;28;20025;-38
2022/05/21 05:51:32;;;;;;;2.88;1.08;;;;;;;;;;5054383;28;20033;-38
2022/05/21 05:53:57;;;;;;;3.38;1.02;;;;;;;;;;5054224;28;20017;-38
2022/05/21 05:56:23;;;;;;;1.60;0.90;;;;;;;;;;5054170;28;20391;-38
2022/05/21 06:01:33;;;;;;;2.40;1.05;;;;;;;;;;5054231;28;20421;-38
2022/05/21 06:03:59;;;;;;;1.08;0.98;;;;;;;;;;5053988;28;20101;-38
2022/05/21 06:06:24;;;;;;;1.65;1.10;;;;;;;;;;5052825;28;20037;-38
2022/05/21 06:08:50;;;;;;;1.50;0.80;;;;;;;;;;5054155;28;20045;-38
2022/05/21 06:11:18;;;;;;;3.30;0.98;;;;;;;;;;5054096;28;20112;-39
2022/05/21 06:13:47;;;;;;;6.43;1.05;;;;;;;;;;5053857;28;20099;-41
2022/05/21 06:16:15;;;;;;;3.53;1.15;;;;;;;;;;5053648;28;20029;-38
2022/05/21 06:18:41;;;;;;;0.85;0.77;;;;;;;;;;5053884;28;20558;-38
2022/05/21 06:21:09;;;;;;;1.77;0.88;;;;;;;;;;5053808;28;20032;-38
2022/05/21 06:23:35;;;;;;;22.95;2.05;;;;;;;;;;5053575;28;20036;-38
2022/05/21 06:26:02;;;;;;;0.93;0.90;;;;;;;;;;5053778;28;20147;-38
2022/05/21 06:28:28;;;;;;;2.15;1.58;;;;;;;;;;5053470;28;20021;-38
2022/05/21 06:30:54;;;;;;;4.78;1.08;;;;;;;;;;5053650;28;20572;-38
2022/05/21 06:33:21;;;;;;;3.90;1.13;;;;;;;;;;5053604;28;20109;-38
2022/05/21 06:35:48;;;;;;;1.58;1.00;;;;;;;;;;5053387;28;20025;-38
2022/05/21 06:38:15;;;;;;;2.33;1.10;;;;;;;;;;5053330;28;20032;-37
2022/05/21 06:40:41;;;;;;;7.97;1.35;;;;;;;;;;5053370;28;20443;-38
2022/05/21 06:43:09;;;;;;;1.30;0.82;;;;;;;;;;5053472;28;20096;-38
2022/05/21 06:45:38;;;;;;;1.08;0.98;;;;;;;;;;5053191;28;20128;-39
2022/05/21 06:48:06;;;;;;;1.83;1.50;;;;;;;;;;5053543;28;20482;-37
2022/05/21 06:50:32;;;;;;;2.72;1.02;;;;;;;;;;5053249;28;20116;-38
2022/05/21 06:52:58;;;;;;;2.22;1.23;;;;;;;;;;5052123;28;20036;-38
2022/05/21 06:55:24;;;;;;;2.38;1.13;;;;;;;;;;5051889;28;20060;-38
2022/05/21 06:57:53;;;;;;;1.80;1.40;;;;;;;;;;5052945;28;20082;-38
2022/05/21 07:00:22;;;;;;;4.30;1.48;;;;;;;;;;5052935;28;20043;-38
2022/05/21 07:02:50;;;;;;;1.23;0.93;;;;;;;;;;5053021;28;20024;-38
2022/05/21 07:08:14;;;;;;;2.03;0.95;;;;;;;;;;5052813;28;20071;-38
2022/05/21 07:10:40;;;;;;;3.15;1.20;;;;;;;;;;5052929;28;20029;-38
2022/05/21 07:13:06;;;;;;;0.77;0.77;;;;;;;;;;5052475;28;20103;-38
2022/05/21 07:15:32;;;;;;;1.88;0.90;;;;;;;;;;5052610;28;20040;-38
2022/05/21 07:17:59;;;;;;;2.15;1.42;;;;;;;;;;5052667;28;20033;-38
2022/05/21 07:20:25;;;;;;;1.60;1.08;;;;;;;;;;5052572;28;20029;-38
2022/05/21 07:22:52;;;;;;;1.08;0.93;;;;;;;;;;5052618;28;20024;-38
2022/05/21 07:25:20;;;;;;;1.63;1.17;;;;;;;;;;5052735;28;20532;-37
2022/05/21 07:27:46;;;;;;;3.65;1.13;;;;;;;;;;5052794;28;20363;-37
2022/05/21 07:30:12;;;;;;;2.88;0.88;;;;;;;;;;5052758;28;20033;-38
2022/05/21 07:32:37;;;;;;;4.25;1.40;;;;;;;;;;5052337;28;20413;-38
2022/05/21 07:35:06;;;;;;;1.92;0.98;;;;;;;;;;5052386;28;20027;-38
2022/05/21 07:37:32;;;;;;;1.23;1.00;;;;;;;;;;5052338;28;20121;-37
2022/05/21 07:39:59;;;;;;;1.98;1.40;;;;;;;;;;5052385;28;20533;-38
2022/05/21 07:42:25;;;;;;;1.35;1.10;;;;;;;;;;5051299;28;20471;-38
2022/05/21 07:44:51;;;;;;;1.92;1.40;;;;;;;;;;5051984;28;20406;-39
2022/05/21 07:47:17;;;;;;;1.40;1.30;;;;;;;;;;5050795;28;20029;-38
2022/05/21 07:49:45;;;;;;;3.33;1.42;;;;;;;;;;5052092;28;20025;-37
2022/05/21 07:52:10;;;;;;;1.52;1.00;;;;;;;;;;5052058;28;20032;-38
2022/05/21 07:54:37;;;;;;;6.60;2.30;;;;;;;;;;5052216;28;20028;-38
2022/05/21 07:57:02;;;;;;;2.55;1.38;;;;;;;;;;5051857;28;20079;-39
2022/05/21 07:59:28;;;;;;;2.38;1.52;;;;;;;;;;5051947;28;20059;-38
2022/05/21 08:01:54;;;;;;;5.53;1.55;;;;;;;;;;5051903;28;20096;-38
2022/05/21 08:04:19;;;;;;;2.70;1.27;;;;;;;;;;5051919;28;20539;-38
2022/05/21 08:06:45;;;;;;;7.85;1.08;;;;;;;;;;5051809;28;20504;-38
2022/05/21 08:09:11;;;;;;;2.08;1.27;;;;;;;;;;5051679;28;20082;-37
2022/05/21 08:11:37;;;;;;;2.55;1.00;;;;;;;;;;5051676;28;20025;-38
2022/05/21 08:14:03;;;;;;;3.05;1.48;;;;;;;;;;5051509;28;20053;-38
2022/05/21 08:16:29;;;;;;;6.13;1.30;;;;;;;;;;5051777;28;20064;-38
2022/05/21 08:18:56;;;;;;;1.42;1.02;;;;;;;;;;5051567;28;20017;-38
2022/05/21 08:21:22;;;;;;;2.53;1.35;;;;;;;;;;5051758;28;20432;-43
2022/05/21 08:29:15;;;;;;;1.42;1.33;;;;;;;;;;5051397;28;20029;-38
2022/05/21 08:31:40;;;;;;;1.83;1.17;;;;;;;;;;5051454;28;20024;-38
2022/05/21 08:34:06;;;;;;;7.95;1.50;;;;;;;;;;5051345;28;20036;-38
2022/05/21 08:36:31;;;;;;;1.95;1.30;;;;;;;;;;5051174;28;20021;-38
2022/05/21 08:38:57;;;;;;;8.93;2.30;;;;;;;;;;5051280;28;20064;-38
2022/05/21 08:41:34;;;;;;;1.42;1.30;;;;;;;;;;5051241;28;20098;-38
2022/05/21 08:44:05;;;;;;;2.40;1.42;;;;;;;;;;5051578;28;20026;-38
2022/05/21 08:46:46;;;;;;;4.10;1.27;;;;;;;;;;5050017;28;20100;-38
2022/05/21 08:49:19;;;;;;;1.65;1.52;;;;;;;;;;5051529;28;20047;-37
2022/05/21 08:51:44;;;;;;;;;;;;;;;;;;5050315;28;20032;-38
2022/05/21 08:54:11;;;;;;;1.48;1.35;;;;;;;;;;5051443;28;19904;-38
2022/05/21 08:56:37;;;;;;;1.65;1.30;;;;;;;;;;5051202;28;20040;-38
2022/05/21 08:59:04;;;;;;;1.73;1.50;;;;;;;;;;5051096;28;20380;-38
2022/05/21 09:01:32;;;;;;;5.50;1.25;;;;;;;;;;5051010;28;20032;-39
2022/05/21 09:03:58;;;;;;;2.55;0.90;;;;;;;;;;5050978;28;20031;-38
2022/05/21 09:06:36;;;;;;;2.75;1.20;;;;;;;;;;5051069;28;20029;-38
2022/05/21 09:09:22;;;;;;;3.10;1.40;;;;;;;;;;5050915;28;20378;-37
2022/05/21 09:11:56;;;;;;;1.83;1.60;;;;;;;;;;5051043;28;20032;-38
2022/05/21 09:14:33;;;;;;;4.22;2.20;;;;;;;;;;5050639;28;20501;-38
2022/05/21 09:17:00;;;;;;;2.00;1.80;;;;;;;;;;5052691;28;20456;-38
2022/05/21 09:19:27;;;;;;;5.43;1.65;;;;;;;;;;5054817;28;20024;-38
2022/05/21 09:22:04;;;;;;;4.28;1.30;;;;;;;;;;5054969;28;20032;-38
2022/05/21 09:24:36;;;;;;;3.42;1.50;;;;;;;;;;5054985;28;20088;-38
2022/05/21 09:27:01;;;;;;;3.10;1.90;;;;;;;;;;5054889;28;20163;-38
2022/05/21 09:29:31;;;;;;;4.82;1.70;;;;;;;;;;5054659;28;20100;-38
2022/05/21 09:31:57;;;;;;;4.95;1.77;;;;;;;;;;5054994;28;20419;-38
2022/05/21 09:34:27;;;;;;;6.18;2.00;;;;;;;;;;5054854;28;20103;-38
2022/05/21 09:36:53;;;;;;;2.30;1.90;;;;;;;;;;5054834;28;20041;-42
2022/05/21 09:39:40;;;;;;;2.03;1.83;;;;;;;;;;5054571;28;20459;-38
2022/05/21 09:42:07;;;;;;;3.78;1.80;;;;;;;;;;5054922;28;20037;-38
2022/05/21 09:47:25;;;;;;;2.10;1.60;;;;;;;;;;5054748;28;20029;-39
2022/05/21 09:50:05;;;;;;;1.92;1.77;;;;;;;;;;5054376;28;20163;-38
2022/05/21 09:52:32;;;;;;;2.67;2.10;;;;;;;;;;5054276;28;20109;-38
2022/05/21 09:54:57;;;;;;;2.50;2.20;;;;;;;;;;5054469;28;20040;-38
2022/05/21 09:57:28;;;;;;;2.08;1.88;;;;;;;;;;5054155;28;20312;-38
2022/05/21 10:00:20;;;;;;;3.80;2.72;;;;;;;;;;5054047;28;20467;-39
2022/05/21 10:02:47;;;;;;;5.78;2.08;;;;;;;;;;5053855;28;20113;-38
2022/05/21 10:05:15;;;;;;;2.90;2.10;;;;;;;;;;5054114;28;20021;-38
2022/05/21 10:13:19;;;;;;;2.58;2.30;;;;;;;;;;5053569;28;20052;-38
2022/05/21 10:15:50;;;;;;;3.45;1.92;;;;;;;;;;5053821;28;20040;-38
2022/05/21 10:18:23;;;;;;;2.38;2.03;;;;;;;;;;5053778;28;20040;-38
2022/05/21 10:20:54;;;;;;;2.53;2.22;;;;;;;;;;5053827;28;20057;-38
2022/05/21 10:23:29;;;;;;;2.58;1.90;;;;;;;;;;5053692;28;20036;-39
2022/05/21 10:26:01;;;;;;;3.63;1.80;;;;;;;;;;5053799;28;20037;-38
2022/05/21 10:28:45;;;;;;;5.00;1.98;;;;;;;;;;5052141;28;20449;-39
2022/05/21 10:31:13;;;;;;;9.85;2.30;;;;;;;;;;5053680;28;20033;-38
2022/05/21 10:34:03;;;;;;;4.00;1.85;;;;;;;;;;5053343;28;20041;-39
2022/05/21 10:36:40;;;;;;;5.43;2.42;;;;;;;;;;5052272;28;20041;-38
2022/05/21 10:39:06;;;;;;;3.38;1.50;;;;;;;;;;5052341;28;20052;-38
2022/05/21 10:41:50;;;;;;;3.70;2.10;;;;;;;;;;5053323;28;20530;-38
2022/05/21 10:44:34;;;;;;;5.50;1.88;;;;;;;;;;5053674;28;20029;-38
2022/05/21 10:47:04;;;;;;;3.58;2.03;;;;;;;;;;5053358;28;20025;-38
2022/05/21 10:49:29;;;;;;;3.47;2.03;;;;;;;;;;5053262;28;20036;-38
2022/05/21 10:52:01;;;;;;;4.75;2.60;;;;;;;;;;5053169;28;20460;-38
2022/05/21 10:54:30;;;;;;;9.35;2.13;;;;;;;;;;5053406;28;20091;-39
2022/05/21 10:57:08;;;;;;;2.55;2.10;;;;;;;;;;5052914;28;20451;-41
2022/05/21 10:59:44;;;;;;;2.42;2.05;;;;;;;;;;5053023;28;20036;-38
2022/05/21 11:02:28;;;;;;;4.13;1.90;;;;;;;;;;5052975;28;20120;-38
2022/05/21 11:05:12;;;;;;;6.95;2.10;;;;;;;;;;5053217;28;20094;-39
2022/05/21 11:07:50;;;;;;;3.22;2.28;;;;;;;;;;5052983;28;20028;-38
2022/05/21 11:10:32;;;;;;;6.97;2.17;;;;;;;;;;5051491;28;20487;-39
2022/05/21 11:13:01;;;;;;;2.95;2.33;;;;;;;;;;5052578;28;20099;-38
2022/05/21 11:16:05;;;;;;;3.38;2.50;;;;;;;;;;5052947;28;20033;-39
2022/05/21 11:18:30;;;;;;;;;;;;;;;;;;5033920;28;20079;-38
2022/05/21 11:21:16;;;;;;;3.25;1.80;;;;;;;;;;5050290;28;19905;-38
2022/05/21 11:23:54;;;;;;;3.28;2.30;;;;;;;;;;5051488;28;20063;-38
2022/05/21 11:26:28;;;;;;;3.95;2.55;;;;;;;;;;5052404;28;20021;-39
2022/05/21 11:29:04;;;;;;;5.50;2.88;;;;;;;;;;5052579;28;20112;-39
2022/05/21 11:37:22;;;;;;;4.55;2.17;;;;;;;;;;5052275;28;20340;-39
2022/05/21 11:39:54;;;;;;;3.58;2.10;;;;;;;;;;5051830;28;20044;-38
2022/05/21 11:42:22;;;;;;;3.45;2.28;;;;;;;;;;5052251;28;20033;-38
2022/05/21 11:45:02;;;;;;;10.27;2.22;;;;;;;;;;5052170;28;20078;-38
2022/05/21 11:47:27;;;;;;;2.17;1.90;;;;;;;;;;5052201;28;20064;-39
2022/05/21 11:50:07;;;;;;;8.90;2.38;;;;;;;;;;5052140;28;20484;-39
2022/05/21 11:52:35;;;;;;;4.70;1.90;;;;;;;;;;5051955;28;20037;-38
2022/05/21 11:55:01;;;;;;;3.67;2.28;;;;;;;;;;5052264;28;20441;-38
2022/05/21 11:57:35;;;;;;;4.32;2.00;;;;;;;;;;5050967;28;20041;-38
2022/05/21 12:00:03;;;;;;;4.57;2.40;;;;;;;;;;5051886;28;20053;-38
2022/05/21 12:02:39;;;;;;;4.35;1.88;;;;;;;;;;5051862;28;20025;-38
2022/05/21 12:05:08;;;;;;;3.80;2.25;;;;;;;;;;5052087;28;20501;-39
2022/05/21 12:07:40;;;;;;;3.70;2.40;;;;;;;;;;5051672;28;20155;-39
2022/05/21 12:10:19;;;;;;;3.67;2.03;;;;;;;;;;5051754;28;20075;-38
2022/05/21 12:13:01;;;;;;;3.17;2.42;;;;;;;;;;5050227;28;20543;-38
2022/05/21 12:15:35;;;;;;;4.28;2.10;;;;;;;;;;5051798;28;20040;-38
2022/05/21 12:18:06;;;;;;;4.20;2.67;;;;;;;;;;5051609;28;20091;-38
2022/05/21 12:20:47;;;;;;;7.05;2.15;;;;;;;;;;5051399;28;20048;-38
2022/05/21 12:23:32;;;;;;;2.67;2.00;;;;;;;;;;5051549;28;20111;-38
2022/05/21 12:25:59;;;;;;;4.55;2.47;;;;;;;;;;5051547;28;20032;-38
2022/05/21 12:28:29;;;;;;;4.10;2.30;;;;;;;;;;5051526;28;20383;-38
2022/05/21 12:30:59;;;;;;;2.78;2.40;;;;;;;;;;5051532;28;20021;-38
2022/05/21 12:33:30;;;;;;;3.35;2.25;;;;;;;;;;5051330;28;20483;-38
2022/05/21 12:36:02;;;;;;;3.55;2.08;;;;;;;;;;5051258;28;20471;-38
2022/05/21 12:38:36;;;;;;;3.05;2.75;;;;;;;;;;5051266;28;20494;-38
2022/05/21 12:41:05;;;;;;;3.80;2.30;;;;;;;;;;5051293;28;20040;-38
2022/05/21 12:43:41;;;;;;;2.95;2.40;;;;;;;;;;5051105;28;20017;-38
2022/05/21 12:46:17;;;;;;;2.60;2.28;;;;;;;;;;5051223;28;20036;-38
2022/05/21 12:48:42;;;;;;;6.05;2.92;;;;;;;;;;5051474;28;20044;-38
2022/05/21 12:51:11;;;;;;;7.85;3.42;;;;;;;;;;5050392;28;20021;-38
2022/05/21 12:53:44;;;;;;;4.30;2.00;;;;;;;;;;5051127;28;20021;-39
2022/05/21 12:56:39;;;;;;;18.55;3.65;;;;;;;;;;5051072;28;20104;-38
2022/05/21 12:59:11;;;;;;;4.03;2.42;;;;;;;;;;5049927;28;20041;-40
2022/05/21 13:01:43;;;;;;;2.85;2.38;;;;;;;;;;5051409;28;20398;-39
2022/05/21 13:04:28;;;;;;;6.25;2.25;;;;;;;;;;5050921;28;20039;-38
2022/05/21 13:06:56;;;;;;;2.83;2.03;;;;;;;;;;5051213;28;20032;-38
2022/05/21 13:09:23;;;;;;;6.47;2.97;;;;;;;;;;5050855;28;20201;-38
2022/05/21 13:11:53;;;;;;;3.42;3.13;;;;;;;;;;5051019;28;20029;-38
2022/05/21 13:14:37;;;;;;;3.08;2.08;;;;;;;;;;5050647;28;20128;-38
2022/05/21 13:17:04;;;;;;;4.47;1.88;;;;;;;;;;5050919;28;20040;-38
2022/05/21 13:19:32;;;;;;;4.00;2.55;;;;;;;;;;5051106;28;20032;-37
2022/05/21 13:21:58;;;;;;;4.35;2.25;;;;;;;;;;5050940;28;20044;-38
2022/05/21 13:24:35;;;;;;;4.10;2.75;;;;;;;;;;5050765;28;20027;-39
2022/05/21 13:27:18;;;;;;;5.80;2.42;;;;;;;;;;5050870;28;20047;-38
2022/05/21 13:29:44;;;;;;;4.47;3.15;;;;;;;;;;5050844;28;20040;-38
2022/05/21 13:32:36;;;;;;;6.00;4.20;;;;;;;;;;5050803;28;20056;-38
2022/05/21 13:35:18;;;;;;;4.72;2.75;;;;;;;;;;5050619;28;20087;-38
2022/05/21 13:37:44;;;;;;;3.00;2.70;;;;;;;;;;5051026;28;20793;-38
2022/05/21 13:40:39;;;;;;;2.72;2.30;;;;;;;;;;5051063;28;20029;-38
2022/05/21 13:43:05;;;;;;;3.05;2.20;;;;;;;;;;5049897;28;20032;-38
2022/05/21 13:45:32;;;;;;;3.03;2.63;;;;;;;;;;5050546;28;20024;-39
2022/05/21 13:48:18;;;;;;;2.75;2.08;;;;;;;;;;5050939;28;20102;-38
2022/05/21 13:50:44;;;;;;;6.32;1.80;;;;;;;;;;5050368;28;20040;-38
2022/05/21 13:53:13;;;;;;;2.78;2.25;;;;;;;;;;5050900;28;20024;-39
2022/05/21 13:56:10;;;;;;;3.15;2.50;;;;;;;;;;5050586;28;20095;-39
2022/05/21 13:58:38;;;;;;;2.33;2.05;;;;;;;;;;5049252;28;20106;-38
2022/05/21 14:01:04;;;;;;;6.15;2.40;;;;;;;;;;5050502;28;20021;-38
2022/05/21 14:03:43;;;;;;;5.82;2.08;;;;;;;;;;5052845;28;20537;-38
2022/05/21 14:06:14;;;;;;;6.75;2.08;;;;;;;;;;5054390;28;20033;-38
2022/05/21 14:08:40;;;;;;;2.67;2.17;;;;;;;;;;5054248;28;20416;-39
2022/05/21 14:11:15;;;;;;;2.90;2.10;;;;;;;;;;5053957;28;20028;-38
2022/05/21 14:13:54;;;;;;;2.95;2.13;;;;;;;;;;5053676;28;20073;-38
2022/05/21 14:16:34;;;;;;;4.40;2.13;;;;;;;;;;5052699;28;20091;-38
2022/05/21 14:19:05;;;;;;;5.78;3.53;;;;;;;;;;5054181;28;20517;-39
2022/05/21 14:21:32;;;;;;;2.17;1.98;;;;;;;;;;5053961;28;20065;-39
2022/05/21 14:24:15;;;;;;;2.80;2.13;;;;;;;;;;5053751;28;20490;-41
2022/05/21 14:26:54;;;;;;;2.58;1.80;;;;;;;;;;5053765;28;20025;-39
2022/05/21 14:29:36;;;;;;;3.10;2.15;;;;;;;;;;5053541;28;20025;-38
2022/05/21 14:32:10;;;;;;;4.15;2.25;;;;;;;;;;5053652;28;20025;-38
2022/05/21 14:34:36;;;;;;;;;;;;;;;;;;5054164;28;20024;-38
2022/05/21 14:37:01;;;;;;;2.00;1.80;;;;;;;;;;5052150;28;19912;-39
2022/05/21 14:39:28;;;;;;;3.47;1.90;;;;;;;;;;5053681;28;20112;-38
2022/05/21 14:41:58;;;;;;;4.38;1.98;;;;;;;;;;5053651;28;20031;-38
2022/05/21 14:44:25;;;;;;;3.20;1.77;;;;;;;;;;5053532;28;20021;-39
2022/05/21 14:49:39;;;;;;;2.50;2.08;;;;;;;;;;5061219;28;20506;-39
2022/05/21 14:54:51;;;;;;;4.03;1.92;;;;;;;;;;5053490;28;20028;-39
2022/05/21 14:57:17;;;;;;;2.58;2.00;;;;;;;;;;5053139;28;20037;-39
2022/05/21 14:59:43;;;;;;;8.32;2.17;;;;;;;;;;5053388;28;20060;-39
2022/05/21 15:02:09;;;;;;;1.95;1.85;;;;;;;;;;5053088;28;20386;-39
2022/05/21 15:04:35;;;;;;;6.65;2.15;;;;;;;;;;5053332;28;20033;-38
2022/05/21 15:07:00;;;;;;;8.75;2.22;;;;;;;;;;5053033;28;20375;-38
2022/05/21 15:09:27;;;;;;;2.55;1.98;;;;;;;;;;5052874;28;20033;-39
2022/05/21 15:11:53;;;;;;;3.88;1.90;;;;;;;;;;5052846;28;20029;-39
2022/05/21 15:14:19;;;;;;;4.65;1.85;;;;;;;;;;5051861;28;20124;-39
2022/05/21 15:16:45;;;;;;;4.72;2.65;;;;;;;;;;5052715;28;20124;-39
2022/05/21 15:19:10;;;;;;;2.65;1.80;;;;;;;;;;5052735;28;20075;-39
2022/05/21 15:21:40;;;;;;;1.98;1.80;;;;;;;;;;5052654;28;20440;-39
2022/05/21 15:24:06;;;;;;;2.42;1.90;;;;;;;;;;5052667;28;20021;-38
2022/05/21 15:26:31;;;;;;;2.35;1.80;;;;;;;;;;5051157;28;20074;-40
2022/05/21 15:28:57;;;;;;;4.32;2.10;;;;;;;;;;5051635;28;20035;-38
2022/05/21 15:31:24;;;;;;;4.18;1.67;;;;;;;;;;5052618;28;20407;-38